createdAt,value
2023-05-05T00:01:42.782Z,1.40
2023-05-05T00:04:31.307Z,1.57
2023-05-05T00:07:19.694Z,1.50
2023-05-05T00:10:08.666Z,1.50
2023-05-05T00:12:57.119Z,1.27
2023-05-05T00:15:48.082Z,1.37
2023-05-05T00:18:36.522Z,1.60
2023-05-05T00:21:24.907Z,1.90
2023-05-05T00:24:13.291Z,1.50
2023-05-05T00:27:02.198Z,1.30
2023-05-05T00:29:50.777Z,1.40
2023-05-05T00:32:40.730Z,1.60
2023-05-05T00:35:29.168Z,1.97
2023-05-05T00:38:17.550Z,1.63
2023-05-05T00:41:06.047Z,1.60
2023-05-05T00:43:54.399Z,1.57
2023-05-05T00:46:43.183Z,1.37
2023-05-05T00:49:34.704Z,1.40
2023-05-05T00:52:23.126Z,1.40
2023-05-05T00:55:11.610Z,1.53
2023-05-05T00:58:00.701Z,1.47
2023-05-05T01:00:49.291Z,1.40
2023-05-05T01:03:39.168Z,1.60
2023-05-05T01:06:41.288Z,1.60
2023-05-05T01:09:38.024Z,1.50
2023-05-05T01:12:35.341Z,1.50
2023-05-05T01:15:34.591Z,1.40
2023-05-05T01:18:30.257Z,1.20
2023-05-05T01:21:23.404Z,1.20
2023-05-05T01:24:32.190Z,1.40
2023-05-05T01:27:49.878Z,1.50
2023-05-05T01:30:59.650Z,1.30
2023-05-05T01:33:53.047Z,1.50
2023-05-05T01:36:43.274Z,1.40
2023-05-05T01:39:34.975Z,1.60
2023-05-05T01:42:23.849Z,1.70
2023-05-05T01:45:14.016Z,1.50
2023-05-05T01:48:03.015Z,1.70
2023-05-05T01:50:53.262Z,1.30
2023-05-05T01:53:42.290Z,1.20
2023-05-05T01:56:31.337Z,1.40
2023-05-05T01:59:21.322Z,1.17
2023-05-05T02:02:11.984Z,1.90
2023-05-05T02:05:00.481Z,1.30
2023-05-05T02:07:51.790Z,1.30
2023-05-05T02:10:41.338Z,1.20
2023-05-05T02:13:32.382Z,1.30
2023-05-05T02:16:21.478Z,1.37
2023-05-05T02:19:10.120Z,1.43
2023-05-05T02:21:58.651Z,1.30
2023-05-05T02:24:48.405Z,1.50
2023-05-05T02:27:37.282Z,1.70
2023-05-05T02:30:26.384Z,1.60
2023-05-05T02:33:16.637Z,1.50
2023-05-05T02:36:08.611Z,1.97
2023-05-05T02:39:02.232Z,1.20
2023-05-05T02:41:57.089Z,1.33
2023-05-05T02:44:48.892Z,1.77
2023-05-05T02:47:38.153Z,1.50
2023-05-05T02:50:27.579Z,1.70
2023-05-05T02:53:28.908Z,1.40
2023-05-05T02:56:28.321Z,1.50
2023-05-05T02:59:31.291Z,1.30
2023-05-05T03:02:25.667Z,1.10
2023-05-05T03:05:18.873Z,1.70
2023-05-05T03:08:12.335Z,1.10
2023-05-05T03:11:05.049Z,1.60
2023-05-05T03:14:09.176Z,1.20
2023-05-05T03:16:59.669Z,1.30
2023-05-05T03:19:48.910Z,1.40
2023-05-05T03:22:37.752Z,1.30
2023-05-05T03:25:42.804Z,1.40
2023-05-05T03:28:32.639Z,1.53
2023-05-05T03:31:25.568Z,1.40
2023-05-05T03:34:19.092Z,1.30
2023-05-05T03:37:09.372Z,1.20
2023-05-05T03:39:58.941Z,1.40
2023-05-05T03:42:47.371Z,1.27
2023-05-05T03:45:36.000Z,1.40
2023-05-05T03:48:24.530Z,1.10
2023-05-05T03:51:15.578Z,1.13
2023-05-05T03:54:04.479Z,1.30
2023-05-05T03:56:52.896Z,1.20
2023-05-05T03:59:41.324Z,1.20
2023-05-05T04:02:30.902Z,1.20
2023-05-05T04:05:19.877Z,1.63
2023-05-05T04:08:10.177Z,1.20
2023-05-05T04:10:58.627Z,1.57
2023-05-05T04:13:48.504Z,1.30
2023-05-05T04:16:36.989Z,1.60
2023-05-05T04:19:25.394Z,1.20
2023-05-05T04:22:13.950Z,1.10
2023-05-05T04:25:04.294Z,1.60
2023-05-05T04:27:52.717Z,1.27
2023-05-05T04:30:41.789Z,1.20
2023-05-05T04:33:31.065Z,1.60
2023-05-05T04:36:20.144Z,1.50
2023-05-05T04:39:09.545Z,1.30
2023-05-05T04:41:59.404Z,1.70
2023-05-05T04:44:47.949Z,1.30
2023-05-05T04:47:38.825Z,1.40
2023-05-05T04:50:27.860Z,1.70
2023-05-05T04:53:16.365Z,1.20
2023-05-05T04:56:05.255Z,1.10
2023-05-05T04:58:55.555Z,1.53
2023-05-05T05:01:44.044Z,1.50
2023-05-05T05:04:32.464Z,1.30
2023-05-05T05:07:21.321Z,1.50
2023-05-05T05:10:10.726Z,1.30
2023-05-05T05:12:59.362Z,1.60
2023-05-05T05:15:49.185Z,1.77
2023-05-05T05:18:38.329Z,1.30
2023-05-05T05:21:27.609Z,1.63
2023-05-05T05:24:16.855Z,2.00
2023-05-05T05:27:09.794Z,1.40
2023-05-05T05:29:59.756Z,1.40
2023-05-05T05:32:50.526Z,1.50
2023-05-05T05:35:39.616Z,1.27
2023-05-05T05:38:28.288Z,1.20
2023-05-05T05:41:19.790Z,1.40
2023-05-05T05:44:08.217Z,1.60
2023-05-05T05:46:56.774Z,1.30
2023-05-05T05:49:47.557Z,1.63
2023-05-05T05:52:36.344Z,1.30
2023-05-05T05:55:26.947Z,1.30
2023-05-05T05:58:17.144Z,2.23
2023-05-05T06:01:06.384Z,1.50
2023-05-05T06:03:55.002Z,1.50
2023-05-05T06:06:44.803Z,1.63
2023-05-05T06:09:33.365Z,1.63
2023-05-05T06:12:21.832Z,1.50
2023-05-05T06:15:10.804Z,1.53
2023-05-05T06:17:59.286Z,1.90
2023-05-05T06:20:50.530Z,1.93
2023-05-05T06:23:42.155Z,1.30
2023-05-05T06:26:31.473Z,1.57
2023-05-05T06:29:19.947Z,1.70
2023-05-05T06:32:08.836Z,1.40
2023-05-05T06:34:57.274Z,1.40
2023-05-05T06:37:45.770Z,1.67
2023-05-05T06:40:35.564Z,2.23
2023-05-05T06:43:23.971Z,1.90
2023-05-05T06:46:18.583Z,1.60
2023-05-05T06:49:07.239Z,1.50
2023-05-05T06:51:55.600Z,1.43
2023-05-05T06:54:44.608Z,1.40
2023-05-05T06:57:34.316Z,1.40
2023-05-05T07:00:23.208Z,1.60
2023-05-05T07:03:11.702Z,1.80
2023-05-05T07:06:00.160Z,1.77
2023-05-05T07:08:48.505Z,1.93
2023-05-05T07:11:37.914Z,2.10
2023-05-05T07:14:27.698Z,2.00
2023-05-05T07:17:16.028Z,2.03
2023-05-05T07:20:04.551Z,1.77
2023-05-05T07:22:52.920Z,1.50
2023-05-05T07:25:41.453Z,2.13
2023-05-05T07:28:29.818Z,1.53
2023-05-05T07:31:19.988Z,1.90
2023-05-05T07:34:08.362Z,1.70
2023-05-05T07:36:56.927Z,1.60
2023-05-05T07:39:47.404Z,2.10
2023-05-05T07:42:35.967Z,1.80
2023-05-05T07:45:24.282Z,2.23
2023-05-05T07:48:13.993Z,2.30
2023-05-05T07:51:02.346Z,2.30
2023-05-05T07:53:50.744Z,2.20
2023-05-05T07:56:39.229Z,2.63
2023-05-05T07:59:27.729Z,2.53
2023-05-05T08:02:16.213Z,2.07
2023-05-05T08:05:07.062Z,2.47
2023-05-05T08:07:55.812Z,2.70
2023-05-05T08:10:44.461Z,2.23
2023-05-05T08:13:33.108Z,2.60
2023-05-05T08:16:21.594Z,2.10
2023-05-05T08:19:17.868Z,2.27
2023-05-05T08:22:15.030Z,2.93
2023-05-05T08:25:03.397Z,2.27
2023-05-05T08:27:51.797Z,2.90
2023-05-05T08:30:49.521Z,2.30
2023-05-05T08:33:37.891Z,2.97
2023-05-05T08:36:27.284Z,2.00
2023-05-05T08:39:16.989Z,2.80
2023-05-05T08:42:37.967Z,2.13
2023-05-05T08:45:29.251Z,1.90
2023-05-05T08:48:19.484Z,2.60
2023-05-05T08:51:08.223Z,2.50
2023-05-05T08:53:59.031Z,2.23
2023-05-05T08:56:51.619Z,2.80
2023-05-05T08:59:40.258Z,2.40
2023-05-05T09:02:30.851Z,2.57
2023-05-05T09:05:19.498Z,3.00
2023-05-05T09:08:08.244Z,2.73
2023-05-05T09:10:56.819Z,2.63
2023-05-05T09:13:47.097Z,2.60
2023-05-05T09:16:35.736Z,2.67
2023-05-05T09:19:24.206Z,2.67
2023-05-05T09:22:12.597Z,3.10
2023-05-05T09:25:00.935Z,2.83
2023-05-05T09:27:50.440Z,2.90
2023-05-05T09:30:42.003Z,2.30
2023-05-05T09:33:31.876Z,2.93
2023-05-05T09:36:21.194Z,2.50
2023-05-05T09:39:10.126Z,2.87
2023-05-05T09:41:58.499Z,2.83
2023-05-05T09:44:46.918Z,2.70
2023-05-05T09:47:37.750Z,2.80
2023-05-05T09:50:28.413Z,3.00
2023-05-05T09:53:16.792Z,2.53
2023-05-05T09:56:05.508Z,2.60
2023-05-05T09:59:09.150Z,3.47
2023-05-05T10:02:11.666Z,2.80
2023-05-05T10:05:08.257Z,3.20
2023-05-05T10:07:56.737Z,3.10
2023-05-05T10:10:52.658Z,2.50
2023-05-05T10:13:43.116Z,2.50
2023-05-05T10:16:34.352Z,2.37
2023-05-05T10:19:24.835Z,3.00
2023-05-05T10:22:15.009Z,3.33
2023-05-05T10:25:04.658Z,2.43
2023-05-05T10:27:56.430Z,2.97
2023-05-05T10:30:47.235Z,2.60
2023-05-05T10:33:39.779Z,3.13
2023-05-05T10:36:28.743Z,2.70
2023-05-05T10:39:19.952Z,2.77
2023-05-05T10:42:08.656Z,3.10
2023-05-05T10:44:57.219Z,3.27
2023-05-05T10:47:45.835Z,2.80
2023-05-05T10:50:37.105Z,3.20
2023-05-05T10:53:29.073Z,2.50
2023-05-05T10:56:25.340Z,3.20
2023-05-05T10:59:40.279Z,2.30
2023-05-05T11:02:29.778Z,2.80
2023-05-05T11:05:21.191Z,2.90
2023-05-05T11:08:27.424Z,3.33
2023-05-05T11:11:16.003Z,2.43
2023-05-05T11:14:23.380Z,2.70
2023-05-05T11:17:45.057Z,3.20
2023-05-05T11:21:17.262Z,2.43
2023-05-05T11:24:29.036Z,2.27
2023-05-05T11:27:17.470Z,2.20
2023-05-05T11:30:09.583Z,3.00
2023-05-05T11:33:26.914Z,2.77
2023-05-05T11:36:16.621Z,2.17
2023-05-05T11:39:09.752Z,2.47
2023-05-05T11:42:10.948Z,2.30
2023-05-05T11:44:59.605Z,1.93
2023-05-05T11:47:49.320Z,2.17
2023-05-05T11:50:37.742Z,2.07
2023-05-05T11:53:26.093Z,2.37
2023-05-05T11:56:18.966Z,2.10
2023-05-05T11:59:09.884Z,2.47
2023-05-05T12:01:58.446Z,2.20
2023-05-05T12:04:48.654Z,2.13
2023-05-05T12:07:37.127Z,2.60
2023-05-05T12:10:25.698Z,2.00
2023-05-05T12:13:23.722Z,2.23
2023-05-05T12:16:14.016Z,2.40
2023-05-05T12:19:05.784Z,1.80
2023-05-05T12:21:55.680Z,1.93
2023-05-05T12:24:44.108Z,1.63
2023-05-05T12:27:32.658Z,2.03
2023-05-05T12:30:22.842Z,2.13
2023-05-05T12:33:12.028Z,2.30
2023-05-05T12:36:00.687Z,2.27
2023-05-05T12:38:50.694Z,2.47
2023-05-05T12:41:39.194Z,2.17
2023-05-05T12:44:36.168Z,2.47
2023-05-05T12:47:31.629Z,2.67
2023-05-05T12:50:31.082Z,2.57
2023-05-05T12:53:22.920Z,2.17
2023-05-05T12:56:31.368Z,2.53
2023-05-05T12:59:34.650Z,2.30
2023-05-05T13:02:23.319Z,2.60
2023-05-05T13:05:11.991Z,3.00
2023-05-05T13:08:00.422Z,2.77
2023-05-05T13:10:58.378Z,2.47
2023-05-05T13:13:48.092Z,2.70
2023-05-05T13:16:36.577Z,2.57
2023-05-05T13:19:25.172Z,3.17
2023-05-05T13:22:14.063Z,2.57
2023-05-05T13:25:02.567Z,2.90
2023-05-05T13:27:50.979Z,3.37
2023-05-05T13:30:41.921Z,3.13
2023-05-05T13:33:30.326Z,3.07
2023-05-05T13:36:18.752Z,3.50
2023-05-05T13:39:08.558Z,3.97
2023-05-05T13:41:56.956Z,3.40
2023-05-05T13:44:45.356Z,4.20
2023-05-05T13:47:35.095Z,4.13
2023-05-05T13:50:24.045Z,3.20
2023-05-05T13:53:12.432Z,3.60
2023-05-05T13:56:00.865Z,4.77
2023-05-05T13:58:49.242Z,4.10
2023-05-05T14:01:38.045Z,3.33
2023-05-05T14:04:28.041Z,4.10
2023-05-05T14:07:16.930Z,4.77
2023-05-05T14:10:06.358Z,4.30
2023-05-05T14:12:54.858Z,4.27
2023-05-05T14:15:43.405Z,4.30
2023-05-05T14:18:31.776Z,5.57
2023-05-05T14:21:21.467Z,5.30
2023-05-05T14:24:09.988Z,4.60
2023-05-05T14:26:58.373Z,5.37
2023-05-05T14:29:46.771Z,5.53
2023-05-05T14:32:35.107Z,5.53
2023-05-05T14:35:23.531Z,5.57
2023-05-05T14:38:13.288Z,6.27
2023-05-05T14:41:01.713Z,5.10
2023-05-05T14:43:50.039Z,5.57
2023-05-05T14:46:38.516Z,5.47
2023-05-05T14:49:26.908Z,5.60
2023-05-05T14:52:15.270Z,6.23
2023-05-05T14:55:05.325Z,6.20
2023-05-05T14:57:53.770Z,6.07
2023-05-05T15:00:42.156Z,8.40
2023-05-05T15:03:30.656Z,9.40
2023-05-05T15:06:19.249Z,7.50
2023-05-05T15:09:07.703Z,7.97
2023-05-05T15:11:57.488Z,6.87
2023-05-05T15:14:45.895Z,8.70
2023-05-05T15:17:34.363Z,7.27
2023-05-05T15:20:22.814Z,8.20
2023-05-05T15:23:11.209Z,9.40
2023-05-05T15:25:59.649Z,8.90
2023-05-05T15:28:50.396Z,7.80
2023-05-05T15:31:38.916Z,7.87
2023-05-05T15:34:27.408Z,7.20
2023-05-05T15:37:15.916Z,7.57
2023-05-05T15:40:05.962Z,6.93
2023-05-05T15:42:54.412Z,6.47
2023-05-05T15:45:44.293Z,6.67
2023-05-05T15:48:32.682Z,6.40
2023-05-05T15:51:21.047Z,5.87
2023-05-05T15:54:09.437Z,7.07
2023-05-05T15:56:57.828Z,6.10
2023-05-05T15:59:46.208Z,5.37
2023-05-05T16:02:36.165Z,6.53
2023-05-05T16:05:24.672Z,5.73
2023-05-05T16:08:13.036Z,5.23
2023-05-05T16:11:01.414Z,4.40
2023-05-05T16:13:50.154Z,4.40
2023-05-05T16:16:38.567Z,5.90
2023-05-05T16:19:31.118Z,4.60
2023-05-05T16:22:20.989Z,3.97
2023-05-05T16:25:10.347Z,4.20
2023-05-05T16:28:00.246Z,4.60
2023-05-05T16:30:48.655Z,4.57
2023-05-05T16:33:40.687Z,4.90
2023-05-05T16:36:30.598Z,5.50
2023-05-05T16:39:18.974Z,5.33
2023-05-05T16:42:07.443Z,5.47
2023-05-05T16:44:56.357Z,4.50
2023-05-05T16:47:44.832Z,4.53
2023-05-05T16:50:33.549Z,4.70
2023-05-05T16:53:23.297Z,4.97
2023-05-05T16:56:12.509Z,4.10
2023-05-05T16:59:00.890Z,4.13
2023-05-05T17:01:49.310Z,4.70
2023-05-05T17:04:37.673Z,3.70
2023-05-05T17:07:26.159Z,4.37
2023-05-05T17:10:15.903Z,3.80
2023-05-05T17:13:04.337Z,3.40
2023-05-05T17:15:52.784Z,3.30
2023-05-05T17:18:41.175Z,3.47
2023-05-05T17:21:29.551Z,3.17
2023-05-05T17:24:17.946Z,3.47
2023-05-05T17:27:07.704Z,3.07
2023-05-05T17:29:56.317Z,3.17
2023-05-05T17:32:44.751Z,2.90
2023-05-05T17:35:33.146Z,2.93
2023-05-05T17:38:21.559Z,2.77
2023-05-05T17:41:10.053Z,3.27
2023-05-05T17:43:59.988Z,2.40
2023-05-05T17:46:48.397Z,2.70
2023-05-05T17:49:36.794Z,2.90
2023-05-05T17:52:25.643Z,2.57
2023-05-05T17:55:14.033Z,2.20
2023-05-05T17:58:02.512Z,2.60
2023-05-05T18:00:52.493Z,2.80
2023-05-05T18:03:41.220Z,2.60
2023-05-05T18:06:29.712Z,2.50
2023-05-05T18:09:18.148Z,2.53
2023-05-05T18:12:07.785Z,2.37
2023-05-05T18:14:56.308Z,2.80
2023-05-05T18:17:46.184Z,2.13
2023-05-05T18:20:35.126Z,2.80
2023-05-05T18:23:23.585Z,2.07
2023-05-05T18:26:12.360Z,2.40
2023-05-05T18:29:00.802Z,2.13
2023-05-05T18:31:51.669Z,2.17
2023-05-05T18:34:41.747Z,2.20
2023-05-05T18:37:30.401Z,2.30
2023-05-05T18:40:19.088Z,2.10
2023-05-05T18:43:07.687Z,2.17
2023-05-05T18:45:56.283Z,2.40
2023-05-05T18:48:44.764Z,1.93
2023-05-05T18:51:34.611Z,2.10
2023-05-05T18:54:23.225Z,2.30
2023-05-05T18:57:11.723Z,2.20
2023-05-05T19:00:01.062Z,2.10
2023-05-05T19:02:49.571Z,2.37
2023-05-05T19:05:39.910Z,2.10
2023-05-05T19:08:29.755Z,2.20
2023-05-05T19:11:18.249Z,2.17
2023-05-05T19:14:06.861Z,1.90
2023-05-05T19:16:56.277Z,2.30
2023-05-05T19:19:44.910Z,2.40
2023-05-05T19:22:33.411Z,2.50
2023-05-05T19:25:23.253Z,3.10
2023-05-05T19:28:12.089Z,2.30
2023-05-05T19:31:00.588Z,2.70
2023-05-05T19:33:49.101Z,2.63
2023-05-05T19:36:37.667Z,2.10
2023-05-05T19:39:26.871Z,2.13
2023-05-05T19:42:17.450Z,1.50
2023-05-05T19:45:06.969Z,2.07
2023-05-05T19:47:55.552Z,1.50
2023-05-05T19:50:44.062Z,1.33
2023-05-05T19:53:32.534Z,1.60
2023-05-05T19:56:21.653Z,1.47
2023-05-05T19:59:11.649Z,1.70
2023-05-05T20:02:00.216Z,1.53
2023-05-05T20:04:49.588Z,1.50
2023-05-05T20:07:38.100Z,1.60
2023-05-05T20:10:27.106Z,1.40
2023-05-05T20:13:16.204Z,1.50
2023-05-05T20:16:07.342Z,1.50
2023-05-05T20:18:55.887Z,1.40
2023-05-05T20:21:44.381Z,1.50
2023-05-05T20:24:33.911Z,1.50
2023-05-05T20:27:22.541Z,1.60
2023-05-05T20:30:12.266Z,1.60
2023-05-05T20:33:02.257Z,1.47
2023-05-05T20:35:50.809Z,1.40
2023-05-05T20:38:41.086Z,1.43
2023-05-05T20:41:29.583Z,1.60
2023-05-05T20:44:17.978Z,1.40
2023-05-05T20:47:06.792Z,1.57
2023-05-05T20:49:56.557Z,1.37
2023-05-05T20:52:44.955Z,1.60
2023-05-05T20:55:33.565Z,1.60
2023-05-05T20:58:21.984Z,1.50
2023-05-05T21:01:10.456Z,1.60
2023-05-05T21:04:00.369Z,1.60
2023-05-05T21:06:50.106Z,1.30
2023-05-05T21:09:38.500Z,1.40
2023-05-05T21:12:28.081Z,1.50
2023-05-05T21:15:17.247Z,1.63
2023-05-05T21:18:07.492Z,1.60
2023-05-05T21:20:56.293Z,1.60
2023-05-05T21:23:48.566Z,1.63
2023-05-05T21:26:36.948Z,2.30
2023-05-05T21:29:25.963Z,1.37
2023-05-05T21:32:14.396Z,1.70
2023-05-05T21:35:03.200Z,1.47
2023-05-05T21:37:51.602Z,1.60
2023-05-05T21:40:41.438Z,1.50
2023-05-05T21:43:29.872Z,1.50
2023-05-05T21:46:19.408Z,1.70
2023-05-05T21:49:13.223Z,1.50
2023-05-05T21:52:01.662Z,1.40
2023-05-05T21:54:50.044Z,1.90
2023-05-05T21:57:39.895Z,1.40
2023-05-05T22:00:28.325Z,1.50
2023-05-05T22:03:16.927Z,1.70
2023-05-05T22:06:05.535Z,1.40
2023-05-05T22:09:12.585Z,1.67
2023-05-05T22:12:02.597Z,1.40
2023-05-05T22:14:52.529Z,1.80
2023-05-05T22:17:41.100Z,1.60
2023-05-05T22:20:29.713Z,1.43
2023-05-05T22:23:18.214Z,1.67
2023-05-05T22:26:06.739Z,1.80
2023-05-05T22:28:55.127Z,1.60
2023-05-05T22:31:44.896Z,1.60
2023-05-05T22:34:33.320Z,1.73
2023-05-05T22:37:21.692Z,1.63
2023-05-05T22:40:10.724Z,2.23
2023-05-05T22:42:59.728Z,1.50
2023-05-05T22:45:48.833Z,1.70
2023-05-05T22:48:38.607Z,1.60
2023-05-05T22:51:27.887Z,1.63
2023-05-05T22:54:16.296Z,1.53
2023-05-05T22:57:04.857Z,1.50
2023-05-05T22:59:53.256Z,1.60
2023-05-05T23:02:41.899Z,1.53
2023-05-05T23:05:31.653Z,2.07
2023-05-05T23:08:20.408Z,1.80
2023-05-05T23:11:08.936Z,1.80
2023-05-05T23:13:57.564Z,1.50
2023-05-05T23:16:46.045Z,1.50
2023-05-05T23:19:34.769Z,1.63
2023-05-05T23:22:24.564Z,1.50
2023-05-05T23:25:13.019Z,1.57
2023-05-05T23:28:01.479Z,1.50
2023-05-05T23:30:49.864Z,1.40
2023-05-05T23:33:38.323Z,1.40
2023-05-05T23:36:27.412Z,1.60
2023-05-05T23:39:17.214Z,1.43
2023-05-05T23:42:05.693Z,1.50
2023-05-05T23:44:54.035Z,1.60
2023-05-05T23:47:42.474Z,1.60
2023-05-05T23:50:31.063Z,1.47
2023-05-05T23:53:19.454Z,1.40
2023-05-05T23:56:09.611Z,1.50
2023-05-05T23:58:58.002Z,2.23
